createdAt,value
2022-11-26T00:02:22.880Z,28.38
2022-11-26T00:04:50.279Z,25.25
2022-11-26T00:07:22.653Z,21.92
2022-11-26T00:09:50.546Z,31.60
2022-11-26T00:12:20.919Z,26.80
2022-11-26T00:14:48.293Z,23.50
2022-11-26T00:17:17.355Z,27.05
2022-11-26T00:19:45.330Z,26.55
2022-11-26T00:22:28.503Z,25.63
2022-11-26T00:24:58.786Z,26.33
2022-11-26T00:27:29.765Z,23.38
2022-11-26T00:29:56.602Z,29.85
2022-11-26T00:32:25.913Z,29.13
2022-11-26T00:34:53.627Z,27.20
2022-11-26T00:37:29.255Z,24.77
2022-11-26T00:39:58.614Z,25.02
2022-11-26T00:42:25.730Z,25.60
2022-11-26T00:44:52.629Z,21.75
2022-11-26T00:47:19.573Z,29.98
2022-11-26T00:49:46.766Z,21.05
2022-11-26T00:52:35.091Z,24.98
2022-11-26T00:55:08.391Z,27.60
2022-11-26T00:57:35.822Z,24.42
2022-11-26T01:00:03.224Z,26.73
2022-11-26T01:02:30.114Z,25.42
2022-11-26T01:04:57.068Z,26.25
2022-11-26T01:07:23.994Z,33.85
2022-11-26T01:09:52.026Z,30.30
2022-11-26T01:12:18.836Z,33.53
2022-11-26T01:14:46.012Z,42.45
2022-11-26T01:17:13.681Z,40.78
2022-11-26T01:19:40.672Z,44.90
2022-11-26T01:22:23.164Z,48.55
2022-11-26T01:24:50.272Z,35.53
2022-11-26T01:27:20.188Z,44.75
2022-11-26T01:29:47.623Z,41.40
2022-11-26T01:32:14.670Z,39.72
2022-11-26T01:34:41.486Z,50.03
2022-11-26T01:37:12.990Z,48.55
2022-11-26T01:39:40.168Z,50.03
2022-11-26T01:42:22.322Z,65.90
2022-11-26T01:44:49.293Z,71.55
2022-11-26T01:47:24.170Z,72.30
2022-11-26T01:50:28.679Z,89.68
2022-11-26T01:53:02.932Z,84.00
2022-11-26T01:55:36.863Z,50.90
2022-11-26T01:58:07.777Z,48.65
2022-11-26T02:00:34.661Z,50.38
2022-11-26T02:03:04.559Z,56.28
2022-11-26T02:05:37.847Z,56.30
2022-11-26T02:08:06.947Z,56.88
2022-11-26T02:10:34.954Z,49.88
2022-11-26T02:13:02.003Z,57.45
2022-11-26T02:15:38.107Z,48.55
2022-11-26T02:18:09.333Z,50.25
2022-11-26T02:20:55.909Z,28.35
2022-11-26T02:23:25.661Z,38.85
2022-11-26T02:26:08.290Z,33.53
2022-11-26T02:28:56.847Z,39.53
2022-11-26T02:31:35.633Z,41.15
2022-11-26T02:34:18.265Z,36.65
2022-11-26T02:36:52.496Z,34.53
2022-11-26T02:39:25.480Z,43.67
2022-11-26T02:41:56.365Z,34.25
2022-11-26T02:44:26.845Z,34.22
2022-11-26T02:47:05.039Z,36.38
2022-11-26T02:49:34.781Z,45.58
2022-11-26T02:52:04.078Z,35.38
2022-11-26T02:54:33.624Z,33.60
2022-11-26T02:57:04.352Z,36.60
2022-11-26T02:59:31.914Z,38.63
2022-11-26T03:02:34.182Z,45.67
2022-11-26T03:05:04.757Z,38.55
2022-11-26T03:07:34.210Z,33.45
2022-11-26T03:10:02.956Z,35.83
2022-11-26T03:12:30.529Z,37.13
2022-11-26T03:14:57.497Z,42.97
2022-11-26T03:17:24.911Z,37.90
2022-11-26T03:19:52.048Z,41.80
2022-11-26T03:22:18.946Z,33.72
2022-11-26T03:24:45.847Z,36.78
2022-11-26T03:27:13.066Z,32.92
2022-11-26T03:29:39.961Z,32.42
2022-11-26T03:32:07.373Z,33.20
2022-11-26T03:34:34.390Z,43.50
2022-11-26T03:37:01.202Z,41.45
2022-11-26T03:39:28.191Z,41.63
2022-11-26T03:41:55.448Z,38.50
2022-11-26T03:44:23.922Z,40.78
2022-11-26T03:46:50.787Z,46.67
2022-11-26T03:49:17.667Z,44.53
2022-11-26T03:51:44.615Z,44.05
2022-11-26T03:54:11.523Z,38.53
2022-11-26T03:56:38.450Z,51.65
2022-11-26T03:59:05.471Z,40.28
2022-11-26T04:01:32.832Z,43.55
2022-11-26T04:03:59.753Z,35.63
2022-11-26T04:06:27.097Z,43.35
2022-11-26T04:08:56.387Z,31.60
2022-11-26T04:11:23.225Z,28.67
2022-11-26T04:13:50.189Z,34.00
2022-11-26T04:16:18.386Z,30.38
2022-11-26T04:18:46.712Z,35.78
2022-11-26T04:21:15.271Z,31.20
2022-11-26T04:23:42.297Z,31.13
2022-11-26T04:26:10.302Z,32.20
2022-11-26T04:28:37.369Z,30.48
2022-11-26T04:31:04.294Z,33.00
2022-11-26T04:33:31.237Z,30.98
2022-11-26T04:35:58.733Z,29.98
2022-11-26T04:38:27.791Z,32.17
2022-11-26T04:40:54.631Z,27.85
2022-11-26T04:43:22.083Z,36.53
2022-11-26T04:45:49.075Z,28.50
2022-11-26T04:48:16.484Z,32.80
2022-11-26T04:50:43.416Z,33.38
2022-11-26T04:53:10.799Z,28.90
2022-11-26T04:55:38.026Z,30.98
2022-11-26T04:58:04.880Z,33.33
2022-11-26T05:00:31.778Z,40.50
2022-11-26T05:02:58.794Z,36.50
2022-11-26T05:05:26.902Z,33.72
2022-11-26T05:07:53.861Z,38.50
2022-11-26T05:10:20.842Z,27.55
2022-11-26T05:12:47.778Z,34.97
2022-11-26T05:15:16.055Z,31.95
2022-11-26T05:17:43.000Z,34.67
2022-11-26T05:20:11.850Z,34.22
2022-11-26T05:22:38.707Z,29.50
2022-11-26T05:25:06.349Z,28.58
2022-11-26T05:27:33.341Z,28.63
2022-11-26T05:30:00.397Z,33.80
2022-11-26T05:32:27.343Z,31.13
2022-11-26T05:35:00.004Z,31.63
2022-11-26T05:37:29.905Z,35.58
2022-11-26T05:39:57.866Z,32.65
2022-11-26T05:42:24.797Z,32.17
2022-11-26T05:44:51.741Z,30.75
2022-11-26T05:47:18.628Z,35.10
2022-11-26T05:49:45.841Z,32.00
2022-11-26T05:52:12.655Z,30.75
2022-11-26T05:54:39.945Z,32.55
2022-11-26T05:57:07.028Z,32.58
2022-11-26T05:59:34.424Z,34.55
2022-11-26T06:02:03.721Z,32.38
2022-11-26T06:04:32.060Z,34.60
2022-11-26T06:07:00.576Z,28.75
2022-11-26T06:09:27.527Z,32.83
2022-11-26T06:11:54.583Z,26.90
2022-11-26T06:14:21.569Z,35.97
2022-11-26T06:16:49.364Z,31.27
2022-11-26T06:19:16.280Z,31.67
2022-11-26T06:21:43.447Z,31.05
2022-11-26T06:24:10.497Z,34.03
2022-11-26T06:26:38.732Z,37.25
2022-11-26T06:29:06.649Z,38.60
2022-11-26T06:31:33.802Z,44.67
2022-11-26T06:34:00.736Z,35.33
2022-11-26T06:36:27.736Z,27.73
2022-11-26T06:38:54.605Z,31.50
2022-11-26T06:41:21.675Z,33.63
2022-11-26T06:43:48.492Z,28.10
2022-11-26T06:46:15.402Z,37.78
2022-11-26T06:48:42.448Z,31.73
2022-11-26T06:51:12.402Z,33.75
2022-11-26T06:53:39.478Z,32.67
2022-11-26T06:56:14.976Z,35.70
2022-11-26T06:58:46.691Z,32.88
2022-11-26T07:01:19.933Z,31.73
2022-11-26T07:03:47.476Z,39.22
2022-11-26T07:06:26.429Z,38.13
2022-11-26T07:08:55.468Z,41.47
2022-11-26T07:11:23.516Z,37.70
2022-11-26T07:13:50.336Z,37.35
2022-11-26T07:16:17.241Z,35.95
2022-11-26T07:18:48.746Z,38.40
2022-11-26T07:21:15.544Z,42.33
2022-11-26T07:23:42.697Z,37.15
2022-11-26T07:26:11.353Z,34.83
2022-11-26T07:28:38.623Z,39.20
2022-11-26T07:31:15.906Z,44.55
2022-11-26T07:33:44.480Z,38.83
2022-11-26T07:36:17.300Z,33.22
2022-11-26T07:38:44.859Z,33.10
2022-11-26T07:41:14.130Z,37.72
2022-11-26T07:43:42.510Z,28.85
2022-11-26T07:46:13.154Z,40.08
2022-11-26T07:48:40.525Z,54.83
2022-11-26T07:51:15.435Z,26.45
2022-11-26T07:53:42.265Z,37.30
2022-11-26T07:56:09.037Z,35.20
2022-11-26T07:58:36.364Z,28.92
2022-11-26T08:01:23.893Z,33.70
2022-11-26T08:03:51.698Z,25.35
2022-11-26T08:06:23.498Z,35.78
2022-11-26T08:08:50.936Z,32.50
2022-11-26T08:11:18.967Z,30.83
2022-11-26T08:13:46.279Z,31.70
2022-11-26T08:16:16.252Z,37.17
2022-11-26T08:18:43.680Z,30.65
2022-11-26T08:21:10.802Z,28.13
2022-11-26T08:24:13.991Z,27.70
2022-11-26T08:26:44.133Z,18.33
2022-11-26T08:29:22.445Z,21.60
2022-11-26T08:31:51.328Z,16.20
2022-11-26T08:34:22.905Z,19.98
2022-11-26T08:36:49.738Z,27.00
2022-11-26T08:39:18.237Z,16.73
2022-11-26T08:41:50.605Z,18.15
2022-11-26T08:44:19.415Z,20.25
2022-11-26T08:46:46.204Z,26.40
2022-11-26T08:49:15.187Z,23.35
2022-11-26T08:51:42.302Z,30.10
2022-11-26T08:54:09.624Z,58.97
2022-11-26T08:56:36.907Z,23.95
2022-11-26T08:59:04.280Z,25.60
2022-11-26T09:01:33.141Z,16.08
2022-11-26T09:04:02.242Z,32.97
2022-11-26T09:06:31.233Z,24.92
2022-11-26T09:09:14.613Z,16.48
2022-11-26T09:11:49.317Z,28.00
2022-11-26T09:14:21.713Z,14.50
2022-11-26T09:16:48.580Z,17.23
2022-11-26T09:19:16.153Z,18.10
2022-11-26T09:21:43.411Z,27.50
2022-11-26T09:24:11.172Z,35.47
2022-11-26T09:26:39.033Z,32.35
2022-11-26T09:29:06.501Z,41.53
2022-11-26T09:31:33.506Z,52.20
2022-11-26T09:34:02.520Z,38.22
2022-11-26T09:36:29.909Z,41.78
2022-11-26T09:38:58.432Z,48.72
2022-11-26T09:41:30.962Z,44.10
2022-11-26T09:44:25.750Z,49.83
2022-11-26T09:47:11.529Z,50.60
2022-11-26T09:49:48.192Z,46.20
2022-11-26T09:52:18.656Z,76.50
2022-11-26T09:54:47.118Z,58.50
2022-11-26T09:57:48.061Z,41.05
2022-11-26T10:00:27.997Z,79.03
2022-11-26T10:02:56.688Z,81.15
2022-11-26T10:05:37.463Z,51.47
2022-11-26T10:08:33.192Z,34.22
2022-11-26T10:11:41.950Z,30.73
2022-11-26T10:14:47.819Z,35.45
2022-11-26T10:17:14.602Z,25.17
2022-11-26T10:20:03.659Z,25.05
2022-11-26T10:22:34.828Z,25.13
2022-11-26T10:25:04.430Z,33.42
2022-11-26T10:27:34.454Z,20.38
2022-11-26T10:30:09.547Z,27.38
2022-11-26T10:32:41.648Z,35.70
2022-11-26T10:35:15.582Z,22.83
2022-11-26T10:37:42.647Z,40.65
2022-11-26T10:40:18.355Z,19.65
2022-11-26T10:43:05.422Z,27.35
2022-11-26T10:45:58.060Z,25.08
2022-11-26T10:48:35.468Z,20.83
2022-11-26T10:51:16.778Z,16.98
2022-11-26T10:53:54.169Z,16.67
2022-11-26T10:56:25.970Z,23.20
2022-11-26T10:58:54.287Z,24.50
2022-11-26T11:01:21.265Z,20.40
2022-11-26T11:04:10.264Z,16.42
2022-11-26T11:06:43.414Z,16.98
2022-11-26T11:09:33.467Z,15.52
2022-11-26T11:12:26.624Z,15.77
2022-11-26T11:14:53.558Z,12.65
2022-11-26T11:17:32.850Z,15.43
2022-11-26T11:20:06.109Z,15.77
2022-11-26T11:22:33.047Z,15.93
2022-11-26T11:25:00.374Z,27.75
2022-11-26T11:27:41.332Z,23.63
2022-11-26T11:30:24.896Z,20.85
2022-11-26T11:32:57.286Z,18.40
2022-11-26T11:35:27.003Z,16.23
2022-11-26T11:37:56.211Z,31.13
2022-11-26T11:40:27.905Z,20.17
2022-11-26T11:43:06.938Z,22.98
2022-11-26T11:45:53.096Z,21.48
2022-11-26T11:48:47.208Z,21.80
2022-11-26T11:51:35.326Z,15.25
2022-11-26T11:54:18.941Z,15.30
2022-11-26T11:57:18.105Z,10.02
2022-11-26T12:00:16.731Z,14.15
2022-11-26T12:03:30.253Z,16.52
2022-11-26T12:06:19.755Z,15.65
2022-11-26T12:09:07.246Z,15.25
2022-11-26T12:11:46.306Z,13.75
2022-11-26T12:14:38.523Z,14.05
2022-11-26T12:17:19.953Z,21.20
2022-11-26T12:19:58.729Z,9.77
2022-11-26T12:22:38.187Z,18.30
2022-11-26T12:25:20.779Z,12.48
2022-11-26T12:27:57.509Z,11.55
2022-11-26T12:30:31.587Z,12.75
2022-11-26T12:33:09.744Z,16.45
2022-11-26T12:35:45.230Z,14.65
2022-11-26T12:38:19.889Z,16.88
2022-11-26T12:40:58.396Z,15.30
2022-11-26T12:43:40.293Z,19.77
2022-11-26T12:46:20.031Z,19.13
2022-11-26T12:48:55.391Z,33.30
2022-11-26T12:51:47.093Z,32.88
2022-11-26T12:54:20.838Z,16.95
2022-11-26T12:59:45.781Z,22.95
2022-11-26T13:02:31.031Z,33.03
2022-11-26T13:04:59.366Z,22.17
2022-11-26T13:07:58.524Z,23.63
2022-11-26T13:10:41.012Z,16.15
2022-11-26T13:13:28.264Z,29.40
2022-11-26T13:16:19.969Z,38.88
2022-11-26T13:18:53.248Z,11.23
2022-11-26T13:22:04.828Z,21.48
2022-11-26T13:24:51.228Z,12.75
2022-11-26T13:27:31.253Z,23.92
2022-11-26T13:30:22.234Z,14.57
2022-11-26T13:33:17.385Z,13.50
2022-11-26T13:36:05.708Z,14.60
2022-11-26T13:39:08.292Z,17.67
2022-11-26T13:41:47.911Z,22.45
2022-11-26T13:44:23.674Z,22.45
2022-11-26T13:47:06.095Z,18.90
2022-11-26T13:50:11.937Z,17.20
2022-11-26T13:52:50.093Z,12.25
2022-11-26T13:55:32.499Z,18.40
2022-11-26T13:58:05.556Z,22.48
2022-11-26T14:00:34.964Z,48.60
2022-11-26T14:03:03.728Z,32.45
2022-11-26T14:05:51.287Z,22.45
2022-11-26T14:08:47.102Z,36.75
2022-11-26T14:11:46.147Z,21.75
2022-11-26T14:14:30.859Z,101.10
2022-11-26T14:17:01.278Z,72.60
2022-11-26T14:19:40.931Z,47.80
2022-11-26T14:22:26.966Z,23.40
2022-11-26T14:24:57.588Z,24.67
2022-11-26T14:27:36.736Z,13.18
2022-11-26T14:30:07.674Z,14.75
2022-11-26T14:32:47.975Z,26.67
2022-11-26T14:35:39.597Z,35.80
2022-11-26T14:38:22.284Z,26.70
2022-11-26T14:41:02.373Z,19.48
2022-11-26T14:43:31.871Z,12.18
2022-11-26T14:46:17.856Z,40.75
2022-11-26T14:48:49.424Z,42.42
2022-11-26T14:51:24.994Z,25.95
2022-11-26T14:53:53.889Z,20.33
2022-11-26T14:56:24.500Z,26.92
2022-11-26T14:58:59.445Z,20.83
2022-11-26T15:01:32.526Z,27.00
2022-11-26T15:04:03.069Z,19.00
2022-11-26T15:06:43.245Z,25.30
2022-11-26T15:09:18.325Z,22.33
2022-11-26T15:11:55.311Z,18.85
2022-11-26T15:14:30.106Z,22.85
2022-11-26T15:17:02.760Z,35.13
2022-11-26T15:19:33.874Z,26.95
2022-11-26T15:22:06.446Z,31.85
2022-11-26T15:24:34.178Z,18.23
2022-11-26T15:27:01.257Z,19.02
2022-11-26T15:29:34.511Z,19.13
2022-11-26T15:32:01.665Z,41.40
2022-11-26T15:34:30.280Z,53.75
2022-11-26T15:36:58.753Z,59.08
2022-11-26T15:39:30.428Z,21.13
2022-11-26T15:42:06.318Z,25.17
2022-11-26T15:44:41.958Z,18.63
2022-11-26T15:47:20.434Z,18.75
2022-11-26T15:49:52.975Z,14.57
2022-11-26T15:52:27.013Z,15.93
2022-11-26T15:57:50.763Z,12.13
2022-11-26T16:00:34.622Z,12.27
2022-11-26T16:03:02.351Z,11.00
2022-11-26T16:05:36.502Z,15.52
2022-11-26T16:08:27.443Z,33.78
2022-11-26T16:10:57.118Z,24.60
2022-11-26T16:13:32.414Z,16.20
2022-11-26T16:16:22.877Z,13.05
2022-11-26T16:19:04.800Z,9.40
2022-11-26T16:21:35.411Z,9.30
2022-11-26T16:24:07.580Z,16.73
2022-11-26T16:26:59.795Z,19.30
2022-11-26T16:29:28.728Z,37.47
2022-11-26T16:31:57.183Z,26.60
2022-11-26T16:34:29.184Z,26.33
2022-11-26T16:37:16.372Z,27.25
2022-11-26T16:39:43.340Z,28.50
2022-11-26T16:42:21.984Z,22.73
2022-11-26T16:44:51.704Z,23.73
2022-11-26T16:47:29.340Z,29.00
2022-11-26T16:49:57.713Z,33.10
2022-11-26T16:52:24.663Z,31.90
2022-11-26T16:54:52.600Z,35.47
2022-11-26T16:57:22.290Z,25.00
2022-11-26T16:59:52.870Z,22.88
2022-11-26T17:02:24.532Z,22.50
2022-11-26T17:04:52.305Z,18.02
2022-11-26T17:07:29.954Z,24.60
2022-11-26T17:09:57.955Z,18.30
2022-11-26T17:12:25.742Z,22.77
2022-11-26T17:17:40.512Z,21.30
2022-11-26T17:20:27.095Z,20.17
2022-11-26T17:22:54.409Z,13.98
2022-11-26T17:25:24.241Z,12.35
2022-11-26T17:27:51.830Z,18.15
2022-11-26T17:30:22.087Z,17.77
2022-11-26T17:32:52.174Z,21.50
2022-11-26T17:35:19.485Z,19.52
2022-11-26T17:37:46.610Z,17.33
2022-11-26T17:40:24.993Z,19.70
2022-11-26T17:42:52.263Z,17.40
2022-11-26T17:45:20.771Z,21.15
2022-11-26T17:47:48.723Z,24.15
2022-11-26T17:50:23.009Z,37.40
2022-11-26T17:52:54.719Z,32.75
2022-11-26T17:55:24.059Z,29.70
2022-11-26T17:57:53.527Z,31.00
2022-11-26T18:00:28.562Z,33.72
2022-11-26T18:02:57.744Z,20.45
2022-11-26T18:05:26.088Z,20.27
2022-11-26T18:07:56.575Z,20.92
2022-11-26T18:10:24.176Z,19.00
2022-11-26T18:12:54.614Z,20.42
2022-11-26T18:15:24.368Z,22.85
2022-11-26T18:17:54.271Z,15.48
2022-11-26T18:20:25.496Z,16.70
2022-11-26T18:22:57.889Z,24.75
2022-11-26T18:25:25.221Z,19.33
2022-11-26T18:27:52.833Z,21.10
2022-11-26T18:30:21.318Z,22.13
2022-11-26T18:32:48.361Z,21.85
2022-11-26T18:35:16.218Z,20.40
2022-11-26T18:37:43.604Z,21.70
2022-11-26T18:40:14.002Z,20.67
2022-11-26T18:42:41.189Z,23.80
2022-11-26T18:45:11.606Z,24.80
2022-11-26T18:47:38.565Z,24.25
2022-11-26T18:50:06.594Z,26.73
2022-11-26T18:52:33.747Z,24.90
2022-11-26T18:55:05.080Z,23.73
2022-11-26T18:57:32.469Z,21.95
2022-11-26T18:59:59.417Z,22.15
2022-11-26T19:02:26.496Z,24.40
2022-11-26T19:04:53.888Z,19.27
2022-11-26T19:07:21.509Z,23.48
2022-11-26T19:09:49.555Z,22.48
2022-11-26T19:12:17.673Z,23.77
2022-11-26T19:14:44.756Z,24.05
2022-11-26T19:17:12.508Z,19.63
2022-11-26T19:19:40.100Z,20.25
2022-11-26T19:22:07.085Z,18.98
2022-11-26T19:24:34.088Z,17.23
2022-11-26T19:27:01.285Z,21.52
2022-11-26T19:29:28.241Z,126.82
2022-11-26T19:31:55.218Z,119.60
2022-11-26T19:34:23.896Z,98.68
2022-11-26T19:36:53.431Z,50.10
2022-11-26T19:39:22.855Z,38.72
2022-11-26T19:41:49.728Z,32.72
2022-11-26T19:44:17.416Z,48.85
2022-11-26T19:46:47.876Z,63.55
2022-11-26T19:49:15.271Z,46.22
2022-11-26T19:51:43.073Z,42.97
2022-11-26T19:54:11.390Z,36.08
2022-11-26T19:56:38.532Z,33.20
2022-11-26T19:59:06.738Z,36.80
2022-11-26T20:01:36.410Z,33.95
2022-11-26T20:04:07.359Z,30.13
2022-11-26T20:06:36.732Z,23.48
2022-11-26T20:09:05.883Z,28.67
2022-11-26T20:11:33.390Z,27.13
2022-11-26T20:14:04.376Z,32.22
2022-11-26T20:16:32.759Z,32.30
2022-11-26T20:19:01.844Z,38.75
2022-11-26T20:21:34.127Z,39.47
2022-11-26T20:24:14.412Z,58.03
2022-11-26T20:26:43.827Z,67.90
2022-11-26T20:29:12.943Z,53.63
2022-11-26T20:31:45.984Z,42.45
2022-11-26T20:34:24.451Z,43.17
2022-11-26T20:36:51.880Z,44.78
2022-11-26T20:39:21.774Z,49.83
2022-11-26T20:41:51.922Z,38.85
2022-11-26T20:44:20.487Z,35.85
2022-11-26T20:46:47.725Z,40.42
2022-11-26T20:49:16.289Z,37.17
2022-11-26T20:51:43.897Z,27.90
2022-11-26T20:54:11.235Z,30.08
2022-11-26T20:56:42.326Z,31.10
2022-11-26T20:59:10.380Z,28.40
2022-11-26T21:01:37.519Z,28.70
2022-11-26T21:04:05.429Z,27.45
2022-11-26T21:06:35.755Z,27.52
2022-11-26T21:09:06.730Z,32.25
2022-11-26T21:11:34.494Z,31.05
2022-11-26T21:14:01.857Z,30.65
2022-11-26T21:16:29.292Z,31.52
2022-11-26T21:18:56.931Z,27.73
2022-11-26T21:21:26.649Z,25.05
2022-11-26T21:23:54.313Z,30.85
2022-11-26T21:26:24.037Z,26.05
2022-11-26T21:28:57.221Z,23.75
2022-11-26T21:31:25.208Z,25.17
2022-11-26T21:34:00.901Z,22.50
2022-11-26T21:36:31.489Z,22.63
2022-11-26T21:38:59.494Z,22.25
2022-11-26T21:41:27.932Z,26.10
2022-11-26T21:43:54.951Z,14.45
2022-11-26T21:46:27.715Z,13.00
2022-11-26T21:48:56.933Z,18.90
2022-11-26T21:51:27.508Z,21.20
2022-11-26T21:53:57.502Z,14.38
2022-11-26T21:56:28.859Z,13.30
2022-11-26T21:58:58.049Z,14.45
2022-11-26T22:01:31.528Z,16.98
2022-11-26T22:04:05.439Z,16.55
2022-11-26T22:06:34.705Z,17.55
2022-11-26T22:09:04.798Z,18.30
2022-11-26T22:11:38.275Z,18.38
2022-11-26T22:14:05.936Z,24.17
2022-11-26T22:16:33.564Z,39.08
2022-11-26T22:19:01.615Z,92.22
2022-11-26T22:21:32.231Z,123.38
2022-11-26T22:24:05.640Z,143.63
2022-11-26T22:26:33.588Z,133.98
2022-11-26T22:29:01.330Z,65.47
2022-11-26T22:31:33.927Z,31.52
2022-11-26T22:34:11.133Z,24.70
2022-11-26T22:36:40.420Z,51.10
2022-11-26T22:39:11.152Z,57.03
2022-11-26T22:41:39.847Z,64.38
2022-11-26T22:44:08.472Z,88.03
2022-11-26T22:46:38.292Z,77.50
2022-11-26T22:49:08.023Z,122.68
2022-11-26T22:51:40.224Z,129.35
2022-11-26T22:54:09.946Z,111.30
2022-11-26T22:56:41.503Z,86.13
2022-11-26T22:59:10.993Z,83.75
2022-11-26T23:01:39.325Z,90.60
2022-11-26T23:04:08.588Z,66.03
2022-11-26T23:06:37.152Z,70.25
2022-11-26T23:09:06.535Z,92.00
2022-11-26T23:11:39.127Z,75.00
2022-11-26T23:14:09.620Z,48.55
2022-11-26T23:16:40.087Z,130.65
2022-11-26T23:19:08.003Z,139.48
2022-11-26T23:21:40.445Z,104.75
2022-11-26T23:24:08.101Z,88.18
2022-11-26T23:26:39.137Z,108.72
2022-11-26T23:29:08.355Z,80.78
2022-11-26T23:31:39.559Z,68.18
2022-11-26T23:34:09.439Z,144.02
2022-11-26T23:36:37.248Z,60.00
2022-11-26T23:39:06.522Z,105.45
2022-11-26T23:41:33.646Z,42.05
2022-11-26T23:44:00.479Z,32.50
2022-11-26T23:46:31.176Z,33.00
2022-11-26T23:48:59.486Z,49.50
2022-11-26T23:51:29.261Z,23.33
2022-11-26T23:53:56.743Z,32.65
2022-11-26T23:56:29.223Z,55.55
2022-11-26T23:58:59.574Z,30.60
